Terminal Aerodrome Forecast
Issued by NWS

Home | Current Version | Previous Version | Text Only | Print | Product List | Glossary On
Versions: 1 2 3 4 5 6 7 8 9 10 11 12 13 14 15 16 17 18 19 20 21 22
000
FTUS42 KFFC 272333
TAFRYY
TAF
KRYY 272333Z 2800/2824 22005KT P6SM SCT040
      TEMPO 2800/2803 VRB15G25KT 3SM -TSRA BKN015CB
     FM280500 VRB03KT P6SM SCT020 BKN080
     FM281200 VRB03KT P6SM SCT015
     FM281400 15003KT P6SM VCSH BKN025 PROB30 2816/2822 3SM -TSRA
      BKN030CB
      AMD NOT SKED 2804/2812=

USA.gov is the U.S. government's official web portal to all federal, state and local government web resources and services.